Time;durP1;ratioP1;P1;durP2;ratioP2;P2;SDS_P1;SDS_P2;PMS_P1;PMS_P2;Temp;Humidity;BMP_temperature;BMP_pressure;BME280_temperature;BME280_humidity;BME280_pressure;Samples;Min_cycle;Max_cycle;Signal;HPM_P1;HPM_P2
2021/04/01 00:02:07;;;;;;;12.88;5.82;;;11.00;47.00;;;;;;5134684;27;20196;-71
2021/04/01 00:04:34;;;;;;;8.77;4.95;;;11.00;47.10;;;;;;5133977;27;20175;-71
2021/04/01 00:07:02;;;;;;;9.48;5.18;;;10.90;46.90;;;;;;5134651;27;20275;-71
2021/04/01 00:09:28;;;;;;;9.15;5.53;;;10.80;46.60;;;;;;5134256;27;20222;-71
2021/04/01 00:11:55;;;;;;;7.70;4.25;;;10.80;46.50;;;;;;5134605;27;20222;-71
2021/04/01 00:14:24;;;;;;;9.13;4.72;;;10.60;47.40;;;;;;5133998;27;20244;-71
2021/04/01 00:16:52;;;;;;;8.27;4.65;;;10.50;47.80;;;;;;5134429;27;20219;-71
2021/04/01 00:19:22;;;;;;;9.80;4.82;;;10.50;48.10;;;;;;5134201;27;20192;-71
2021/04/01 00:21:48;;;;;;;6.97;4.43;;;10.50;48.00;;;;;;5134408;27;20199;-70
2021/04/01 00:24:16;;;;;;;7.05;4.80;;;10.40;47.90;;;;;;5134395;27;20195;-71
2021/04/01 00:26:43;;;;;;;6.40;4.80;;;10.40;48.00;;;;;;5133563;27;20183;-71
2021/04/01 00:29:10;;;;;;;8.68;5.15;;;10.40;48.30;;;;;;5134238;27;20189;-71
2021/04/01 00:31:37;;;;;;;12.95;5.60;;;10.40;48.40;;;;;;5133923;27;20195;-71
2021/04/01 00:34:03;;;;;;;11.52;4.78;;;10.40;48.30;;;;;;5133975;27;20191;-71
2021/04/01 00:36:30;;;;;;;7.63;4.32;;;10.40;48.50;;;;;;5133369;27;20180;-71
2021/04/01 00:38:56;;;;;;;9.07;5.00;;;10.40;49.00;;;;;;5134042;27;20188;-71
2021/04/01 00:41:24;;;;;;;13.98;3.90;;;10.40;49.00;;;;;;5133602;27;20673;-71
2021/04/01 00:43:51;;;;;;;10.30;5.25;;;10.40;49.30;;;;;;5133936;27;20196;-71
2021/04/01 00:46:18;;;;;;;8.23;5.35;;;10.40;49.80;;;;;;5133246;27;20660;-71
2021/04/01 00:48:50;;;;;;;5.40;3.55;;;10.40;49.80;;;;;;5133881;27;20237;-71
2021/04/01 00:51:17;;;;;;;9.05;4.80;;;10.40;49.60;;;;;;5133431;27;20263;-71
2021/04/01 00:53:44;;;;;;;7.57;4.43;;;10.40;49.40;;;;;;5133665;27;20191;-71
2021/04/01 00:56:11;;;;;;;6.93;4.80;;;10.30;49.70;;;;;;5133017;27;20191;-71
2021/04/01 00:58:39;;;;;;;17.25;4.93;;;10.30;49.90;;;;;;5133744;27;20211;-71
2021/04/01 01:01:20;;;;;;;8.38;3.92;;;10.30;49.30;;;;;;5133511;27;20622;-71
2021/04/01 01:03:47;;;;;;;7.25;4.03;;;10.30;49.40;;;;;;5133580;27;20274;-71
2021/04/01 01:06:14;;;;;;;20.60;5.28;;;10.30;49.60;;;;;;5133084;27;20187;-70
2021/04/01 01:08:40;;;;;;;5.30;3.60;;;10.30;49.30;;;;;;5133561;27;20199;-71
2021/04/01 01:11:07;;;;;;;8.02;5.15;;;10.20;49.50;;;;;;5133410;27;20184;-71
2021/04/01 01:13:34;;;;;;;7.95;4.60;;;10.20;49.30;;;;;;5133060;27;20283;-71
2021/04/01 01:16:02;;;;;;;10.13;4.43;;;10.20;49.70;;;;;;5133704;27;20198;-71
2021/04/01 01:18:29;;;;;;;7.53;4.53;;;10.20;49.80;;;;;;5132990;27;20693;-71
2021/04/01 01:20:57;;;;;;;10.93;4.43;;;10.20;50.00;;;;;;5112852;28;20184;-71
2021/04/01 01:23:26;;;;;;;9.45;4.55;;;10.10;49.90;;;;;;5112836;28;20188;-71
2021/04/01 01:25:55;;;;;;;10.15;5.50;;;10.10;50.00;;;;;;5132344;28;20195;-71
2021/04/01 01:28:22;;;;;;;6.95;4.43;;;10.00;49.90;;;;;;5133575;27;20649;-70
2021/04/01 01:30:49;;;;;;;9.20;4.03;;;10.00;49.40;;;;;;5133017;27;20232;-71
2021/04/01 01:33:18;;;;;;;7.97;4.47;;;10.00;49.40;;;;;;5133461;27;20215;-70
2021/04/01 01:35:46;;;;;;;7.47;4.97;;;9.90;50.40;;;;;;5132740;27;20184;-71
2021/04/01 01:38:13;;;;;;;10.75;4.20;;;9.90;50.50;;;;;;5133202;27;20226;-71
2021/04/01 01:40:40;;;;;;;9.93;5.20;;;9.90;50.50;;;;;;5136421;27;20572;-71
2021/04/01 01:43:10;;;;;;;8.18;4.45;;;9.80;50.50;;;;;;5136786;27;20183;-71
2021/04/01 01:45:37;;;;;;;9.40;4.68;;;9.80;50.60;;;;;;5137212;27;20191;-71
2021/04/01 01:48:05;;;;;;;8.30;4.00;;;9.70;50.30;;;;;;5137049;27;20336;-71
2021/04/01 01:50:35;;;;;;;9.90;4.40;;;9.70;50.00;;;;;;5136753;27;20184;-70
2021/04/01 01:53:03;;;;;;;6.32;4.50;;;9.60;50.50;;;;;;5137232;27;20221;-71
2021/04/01 01:55:30;;;;;;;7.15;4.45;;;9.50;50.00;;;;;;5136908;27;20609;-71
2021/04/01 01:57:57;;;;;;;8.15;4.93;;;9.50;50.50;;;;;;5137089;27;20748;-70
2021/04/01 02:00:27;;;;;;;8.88;5.97;;;9.50;50.60;;;;;;5136294;27;20191;-71
2021/04/01 02:02:55;;;;;;;12.38;7.25;;;9.50;50.30;;;;;;5136994;27;20694;-70
2021/04/01 02:05:23;;;;;;;8.65;5.55;;;9.40;50.30;;;;;;5136357;27;20191;-70
2021/04/01 02:07:51;;;;;;;8.02;5.22;;;9.40;50.70;;;;;;5137104;27;20213;-70
2021/04/01 02:10:19;;;;;;;9.65;5.72;;;9.40;50.70;;;;;;5136197;27;20192;-70
2021/04/01 02:12:46;;;;;;;33.67;6.10;;;9.40;51.20;;;;;;5136936;27;20192;-71
2021/04/01 02:15:15;;;;;;;10.75;4.88;;;9.40;51.60;;;;;;5136726;27;20236;-70
2021/04/01 02:17:43;;;;;;;6.10;4.90;;;9.30;51.50;;;;;;5136720;27;20581;-70
2021/04/01 02:20:11;;;;;;;7.22;4.70;;;9.30;51.80;;;;;;5136282;27;20537;-70
2021/04/01 02:22:38;;;;;;;7.47;3.55;;;9.30;52.30;;;;;;5136715;27;20223;-71
2021/04/01 02:25:05;;;;;;;7.68;4.22;;;9.30;52.60;;;;;;5136322;27;20187;-71
2021/04/01 02:27:32;;;;;;;6.68;4.32;;;9.20;52.80;;;;;;5136557;27;20198;-70
2021/04/01 02:30:00;;;;;;;7.63;3.80;;;9.30;53.20;;;;;;5136110;27;20204;-70
2021/04/01 02:32:26;;;;;;;6.47;4.25;;;9.30;52.90;;;;;;5136530;27;20702;-70
2021/04/01 02:34:54;;;;;;;7.80;4.45;;;9.30;52.20;;;;;;5136374;27;20203;-70
2021/04/01 02:37:21;;;;;;;7.68;3.80;;;9.20;51.70;;;;;;5136267;27;20222;-70
2021/04/01 02:39:48;;;;;;;8.70;4.78;;;9.20;52.50;;;;;;5135696;27;20188;-70
2021/04/01 02:42:14;;;;;;;8.25;5.03;;;9.20;52.70;;;;;;5136294;27;20192;-70
2021/04/01 02:44:41;;;;;;;6.57;3.88;;;9.20;52.00;;;;;;5135331;27;20191;-71
2021/04/01 02:47:08;;;;;;;6.97;4.15;;;9.10;51.40;;;;;;5136136;27;20325;-70
2021/04/01 02:49:34;;;;;;;6.80;4.30;;;9.10;51.40;;;;;;5135680;27;20195;-70
2021/04/01 02:52:02;;;;;;;9.98;4.47;;;9.10;51.30;;;;;;5136384;27;20202;-70
2021/04/01 02:54:29;;;;;;;8.85;4.82;;;9.00;51.40;;;;;;5135658;27;20202;-71
2021/04/01 02:56:56;;;;;;;7.50;5.10;;;8.90;51.40;;;;;;5136139;27;20215;-70
2021/04/01 02:59:22;;;;;;;8.50;4.35;;;8.90;51.30;;;;;;5135677;27;20192;-70
2021/04/01 03:01:49;;;;;;;6.68;4.18;;;8.80;51.30;;;;;;5135971;27;20232;-70
2021/04/01 03:04:16;;;;;;;7.53;4.65;;;8.70;51.10;;;;;;5135238;27;20316;-70
2021/04/01 03:06:42;;;;;;;6.90;4.07;;;8.60;51.30;;;;;;5135880;27;20283;-70
2021/04/01 03:09:10;;;;;;;8.07;4.20;;;8.60;51.50;;;;;;5135664;27;20187;-70
2021/04/01 03:11:37;;;;;;;6.85;4.38;;;8.50;51.60;;;;;;5135993;27;20191;-71
2021/04/01 03:14:04;;;;;;;6.90;4.03;;;8.50;51.40;;;;;;5135210;27;20206;-70
2021/04/01 03:16:30;;;;;;;6.32;3.78;;;8.40;51.10;;;;;;5135864;27;20283;-70
2021/04/01 03:18:57;;;;;;;7.47;5.20;;;8.30;51.30;;;;;;5135375;27;20275;-71
2021/04/01 03:21:25;;;;;;;7.30;4.65;;;8.30;51.90;;;;;;5135570;27;20622;-70
2021/04/01 03:23:52;;;;;;;8.73;4.38;;;8.30;52.20;;;;;;5135333;27;20188;-70
2021/04/01 03:26:20;;;;;;;12.20;5.47;;;8.20;52.60;;;;;;5135020;27;20187;-70
2021/04/01 03:28:46;;;;;;;8.77;4.75;;;8.20;52.80;;;;;;5135528;27;20188;-70
2021/04/01 03:31:13;;;;;;;8.15;4.35;;;8.20;52.50;;;;;;5135064;27;20673;-71
2021/04/01 03:33:39;;;;;;;11.88;4.93;;;8.20;52.60;;;;;;5135382;27;20184;-70
2021/04/01 03:36:09;;;;;;;6.90;4.50;;;8.10;52.70;;;;;;5135002;27;20187;-70
2021/04/01 03:38:36;;;;;;;9.18;4.63;;;8.10;52.70;;;;;;5135315;27;20255;-70
2021/04/01 03:41:03;;;;;;;7.32;4.20;;;8.00;53.20;;;;;;5135038;27;20187;-70
2021/04/01 03:43:30;;;;;;;6.80;3.95;;;8.00;53.20;;;;;;5135268;27;20274;-70
2021/04/01 03:45:57;;;;;;;6.90;5.30;;;8.00;53.30;;;;;;5134300;27;20187;-70
2021/04/01 03:48:24;;;;;;;6.65;4.03;;;8.00;53.40;;;;;;5134779;27;20192;-70
2021/04/01 03:50:51;;;;;;;7.50;4.57;;;8.00;53.50;;;;;;5134840;27;20188;-70
2021/04/01 03:53:18;;;;;;;7.68;4.07;;;8.00;53.10;;;;;;5134542;27;20649;-70
2021/04/01 03:55:45;;;;;;;9.88;5.07;;;8.00;53.00;;;;;;5135151;27;20212;-70
2021/04/01 03:58:25;;;;;;;6.20;3.65;;;7.90;52.80;;;;;;5133936;27;20212;-70
2021/04/01 04:01:00;;;;;;;9.00;4.93;;;7.90;53.00;;;;;;5134685;27;20655;-71
2021/04/01 04:03:38;;;;;;;9.25;5.65;;;7.90;52.80;;;;;;5134795;27;20195;-70
2021/04/01 04:06:13;;;;;;;11.07;4.20;;;7.80;52.60;;;;;;5134589;27;20243;-70
2021/04/01 04:08:56;;;;;;;5.65;3.80;;;7.80;53.10;;;;;;5135057;27;20223;-70
2021/04/01 04:11:29;;;;;;;8.68;3.75;;;7.70;53.00;;;;;;5134592;27;20242;-70
2021/04/01 04:13:59;;;;;;;6.95;4.82;;;7.70;53.20;;;;;;5134867;27;20194;-70
2021/04/01 04:16:27;;;;;;;8.23;3.50;;;7.70;53.40;;;;;;5134191;27;20184;-70
2021/04/01 04:18:53;;;;;;;6.57;4.55;;;7.70;53.60;;;;;;5134757;27;20187;-70
2021/04/01 04:21:20;;;;;;;10.02;4.30;;;7.80;53.60;;;;;;5134299;27;20256;-70
2021/04/01 04:23:48;;;;;;;7.30;4.65;;;7.70;53.70;;;;;;5134620;27;20187;-70
2021/04/01 04:26:15;;;;;;;9.70;4.50;;;7.70;53.90;;;;;;5133807;27;20184;-70
2021/04/01 04:28:42;;;;;;;7.90;4.75;;;7.70;54.20;;;;;;5134569;27;20347;-71
2021/04/01 04:31:10;;;;;;;11.77;5.03;;;7.70;54.40;;;;;;5134028;27;20616;-70
2021/04/01 04:33:38;;;;;;;7.07;4.70;;;7.70;54.30;;;;;;5134527;27;20218;-71
2021/04/01 04:36:06;;;;;;;8.70;3.72;;;7.70;54.40;;;;;;5133707;27;20180;-70
2021/04/01 04:38:33;;;;;;;7.90;4.18;;;7.60;53.70;;;;;;5134238;27;20191;-71
2021/04/01 04:41:00;;;;;;;5.22;3.28;;;7.60;53.50;;;;;;5134185;27;20179;-70
2021/04/01 04:43:28;;;;;;;4.57;3.10;;;7.50;53.30;;;;;;5134445;27;20209;-70
2021/04/01 04:45:55;;;;;;;6.38;3.88;;;7.50;53.40;;;;;;5133587;27;20184;-70
2021/04/01 04:48:22;;;;;;;7.82;2.92;;;7.40;53.70;;;;;;5134214;27;20215;-71
2021/04/01 04:50:50;;;;;;;6.18;3.40;;;7.40;54.00;;;;;;5133712;27;20602;-70
2021/04/01 04:53:18;;;;;;;13.80;4.63;;;7.40;54.00;;;;;;5134275;27;20192;-70
2021/04/01 04:55:56;;;;;;;8.82;3.88;;;7.40;54.00;;;;;;5133623;27;20274;-71
2021/04/01 04:58:25;;;;;;;12.50;4.88;;;7.40;54.10;;;;;;5113494;28;20283;-70
2021/04/01 05:01:04;;;;;;;11.88;3.63;;;7.40;54.00;;;;;;5114038;28;20196;-70
2021/04/01 05:06:31;;;;;;;9.43;4.50;;;7.50;54.20;;;;;;5133752;27;20557;-70
2021/04/01 05:08:58;;;;;;;10.18;5.10;;;7.50;54.30;;;;;;5133912;27;20272;-70
2021/04/01 05:11:26;;;;;;;8.32;4.60;;;7.50;54.70;;;;;;5133283;27;20176;-70
2021/04/01 05:13:52;;;;;;;7.97;4.35;;;7.60;54.60;;;;;;5133113;27;20538;-71
2021/04/01 05:16:19;;;;;;;9.82;5.90;;;7.60;54.40;;;;;;5133637;27;20183;-70
2021/04/01 05:18:47;;;;;;;24.42;9.48;;;7.60;54.60;;;;;;5133812;27;20279;-70
2021/04/01 05:21:14;;;;;;;23.23;9.82;;;7.60;55.00;;;;;;5133148;27;20191;-70
2021/04/01 05:23:46;;;;;;;16.17;9.50;;;7.60;55.40;;;;;;5111671;28;20309;-70
2021/04/01 05:29:01;;;;;;;18.17;7.63;;;7.80;55.40;;;;;;5133740;27;20742;-70
2021/04/01 05:31:31;;;;;;;13.93;7.43;;;7.90;55.40;;;;;;5127086;27;20287;-70
2021/04/01 05:33:58;;;;;;;14.52;7.90;;;7.90;55.70;;;;;;5112824;28;20191;-70
2021/04/01 05:36:28;;;;;;;8.23;5.45;;;8.00;55.80;;;;;;5129952;28;20183;-70
2021/04/01 05:38:58;;;;;;;14.70;5.82;;;8.10;55.60;;;;;;5130841;27;20649;-71
2021/04/01 05:41:26;;;;;;;14.50;5.90;;;8.20;55.40;;;;;;5127112;27;20188;-71
2021/04/01 05:44:01;;;;;;;11.50;5.13;;;8.30;54.90;;;;;;5112246;28;20184;-70
2021/04/01 05:46:31;;;;;;;8.60;4.82;;;8.30;54.40;;;;;;5113228;28;20230;-70
2021/04/01 05:49:12;;;;;;;14.63;8.82;;;8.20;54.00;;;;;;5112157;28;20215;-70
2021/04/01 06:03:17;;;;;;;19.38;9.35;;;8.70;55.70;;;;;;5117637;27;20200;-70
2021/04/01 06:05:50;;;;;;;16.77;8.27;;;8.90;55.20;;;;;;5112292;28;20192;-70
2021/04/01 06:08:20;;;;;;;21.90;9.15;;;9.00;55.20;;;;;;5126987;28;20297;-70
2021/04/01 06:10:50;;;;;;;17.10;7.78;;;9.20;55.30;;;;;;5130530;27;20642;-70
2021/04/01 06:13:19;;;;;;;12.00;5.68;;;9.30;55.40;;;;;;5127128;27;20180;-70
2021/04/01 06:15:48;;;;;;;11.10;5.63;;;9.50;55.40;;;;;;5130580;27;20574;-71
2021/04/01 06:18:16;;;;;;;7.22;4.05;;;9.60;55.10;;;;;;5126913;27;20184;-72
2021/04/01 06:20:46;;;;;;;6.03;4.45;;;9.80;55.00;;;;;;5121953;28;20188;-73
2021/04/01 06:23:18;;;;;;;9.18;4.43;;;9.90;54.60;;;;;;5120649;28;20192;-73
2021/04/01 06:25:54;;;;;;;7.55;3.15;;;10.10;54.10;;;;;;5113555;27;20639;-73
2021/04/01 06:28:32;;;;;;;5.95;3.80;;;10.20;53.50;;;;;;5124436;27;20212;-75
2021/04/01 06:30:59;;;;;;;6.75;3.78;;;10.50;53.30;;;;;;5120073;27;20188;-75
2021/04/01 06:33:27;;;;;;;7.57;4.47;;;10.60;53.10;;;;;;5115562;27;20711;-75
2021/04/01 06:35:56;;;;;;;7.68;3.67;;;10.80;53.10;;;;;;5119839;27;20175;-74
2021/04/01 06:38:27;;;;;;;8.13;4.68;;;11.00;52.40;;;;;;5115791;28;20200;-74
2021/04/01 06:40:58;;;;;;;10.73;5.18;;;11.20;52.60;;;;;;5116989;27;20192;-71
2021/04/01 06:43:48;;;;;;;8.40;5.40;;;11.40;53.00;;;;;;5118857;27;20267;-71
2021/04/01 06:46:17;;;;;;;17.95;7.03;;;11.70;53.00;;;;;;5129589;27;20195;-71
2021/04/01 06:49:07;;;;;;;14.60;6.30;;;11.90;52.70;;;;;;5130656;27;20243;-71
2021/04/01 06:51:50;;;;;;;13.27;5.88;;;12.20;52.40;;;;;;5131048;27;20192;-71
2021/04/01 06:54:26;;;;;;;10.82;5.43;;;12.50;51.50;;;;;;5119799;27;20184;-72
2021/04/01 06:57:23;;;;;;;9.93;5.63;;;12.80;50.60;;;;;;5115287;27;20202;-71
2021/04/01 07:00:08;;;;;;;10.95;6.68;;;13.20;51.30;;;;;;5120301;27;20313;-71
2021/04/01 07:02:38;;;;;;;13.45;5.78;;;13.50;51.60;;;;;;5131219;27;20188;-72
2021/04/01 07:08:00;;;;;;;14.30;5.57;;;14.20;51.30;;;;;;5127675;27;20208;-72
2021/04/01 07:10:47;;;;;;;9.65;5.25;;;14.70;47.80;;;;;;5129473;27;20192;-72
2021/04/01 07:13:19;;;;;;;7.60;3.58;;;15.10;47.80;;;;;;5126535;27;20185;-72
2021/04/01 07:15:48;;;;;;;8.52;3.38;;;15.60;44.10;;;;;;5118479;27;20336;-72
2021/04/01 07:18:48;;;;;;;8.10;3.35;;;16.10;42.20;;;;;;5131665;27;20188;-72
2021/04/01 07:34:33;;;;;;;10.50;2.87;;;20.30;36.00;;;;;;5090671;27;20939;-73
2021/04/01 07:36:00;;;;;;;9.60;2.90;;;21.50;35.80;;;;;;5132117;27;20927;-72
2021/04/01 07:47:08;;;;;;;7.20;4.63;;;28.50;23.60;;;;;;5130776;27;20554;-72
2021/04/01 07:49:44;;;;;;;6.00;3.60;;;30.30;21.20;;;;;;5132303;27;20445;-71
2021/04/01 07:52:14;;;;;;;9.63;3.27;;;31.50;19.40;;;;;;5131996;27;20444;-71
2021/04/01 07:54:57;;;;;;;7.07;2.90;;;32.70;18.10;;;;;;5131685;27;20863;-71
2021/04/01 07:57:53;;;;;;;3.70;2.43;;;33.60;17.60;;;;;;5125289;27;20467;-73
2021/04/01 08:00:24;;;;;;;6.53;2.93;;;34.50;17.00;;;;;;5136575;27;20441;-71
2021/04/01 08:03:06;;;;;;;4.87;2.70;;;35.40;15.70;;;;;;5135840;27;20445;-72
2021/04/01 08:05:35;;;;;;;6.70;2.80;;;36.20;15.00;;;;;;5139848;27;20433;-71
2021/04/01 08:08:05;;;;;;;6.50;2.60;;;37.20;14.70;;;;;;5137085;27;20461;-71
2021/04/01 08:10:37;;;;;;;8.43;2.80;;;38.00;13.70;;;;;;5135961;27;20478;-71
2021/04/01 08:13:07;;;;;;;5.60;3.00;;;38.70;12.50;;;;;;5137538;27;20437;-71
2021/04/01 08:15:41;;;;;;;5.20;2.53;;;39.20;12.10;;;;;;5136160;27;20946;-71
2021/04/01 08:18:17;;;;;;;5.13;2.93;;;39.50;11.70;;;;;;5134611;27;20485;-71
2021/04/01 08:20:49;;;;;;;6.17;3.30;;;39.70;11.50;;;;;;5141868;27;20447;-71
2021/04/01 08:23:17;;;;;;;6.50;2.70;;;40.00;11.90;;;;;;5135230;27;21046;-71
2021/04/01 08:25:51;;;;;;;10.30;3.10;;;40.40;12.20;;;;;;5132548;27;20482;-71
2021/04/01 08:28:44;;;;;;;4.77;3.07;;;41.20;11.70;;;;;;5143891;27;20447;-71
2021/04/01 08:34:13;;;;;;;4.93;2.80;;;42.40;10.40;;;;;;5127836;27;20897;-72
2021/04/01 08:36:46;;;;;;;6.43;2.60;;;42.40;10.40;;;;;;5137428;27;20434;-72
2021/04/01 08:39:15;;;;;;;5.40;3.17;;;42.40;10.80;;;;;;5136229;27;20473;-71
2021/04/01 08:42:16;;;;;;;6.00;3.20;;;42.60;10.20;;;;;;5128805;27;21026;-72
2021/04/01 08:45:21;;;;;;;10.53;3.27;;;42.80;9.20;;;;;;5132573;27;20928;-71
2021/04/01 08:48:02;;;;;;;5.40;2.80;;;43.30;10.20;;;;;;5138216;27;20476;-71
2021/04/01 08:50:35;;;;;;;6.47;2.80;;;44.40;9.60;;;;;;5140886;27;20463;-71
2021/04/01 08:53:24;;;;;;;5.80;3.20;;;45.40;9.40;;;;;;5127048;27;20459;-72
2021/04/01 08:55:58;;;;;;;3.63;2.83;;;46.40;8.20;;;;;;5131725;27;20426;-72
2021/04/01 08:58:37;;;;;;;7.20;3.07;;;47.20;8.30;;;;;;5142321;27;20441;-72
2021/04/01 09:01:14;;;;;;;5.73;3.00;;;48.10;8.00;;;;;;5129552;27;20964;-72
2021/04/01 09:03:41;;;;;;;5.83;3.43;;;48.70;7.90;;;;;;5124758;27;20441;-72
2021/04/01 09:06:11;;;;;;;5.23;3.37;;;49.30;7.70;;;;;;5140971;27;20440;-72
2021/04/01 09:08:45;;;;;;;6.23;4.10;;;50.00;7.30;;;;;;5126792;27;20868;-72
2021/04/01 09:11:12;;;;;;;9.43;5.03;;;50.90;6.80;;;;;;5129423;27;20449;-72
2021/04/01 09:13:45;;;;;;;7.50;4.70;;;50.60;5.40;;;;;;5121582;27;20498;-72
2021/04/01 09:16:20;;;;;;;8.80;5.13;;;49.70;5.20;;;;;;5132203;27;20459;-72
2021/04/01 09:18:47;;;;;;;9.43;5.30;;;48.80;5.60;;;;;;5140290;27;20989;-72
2021/04/01 09:21:16;;;;;;;8.00;5.03;;;46.90;5.50;;;;;;5136870;27;20525;-72
2021/04/01 09:23:46;;;;;;;9.50;5.50;;;44.10;6.10;;;;;;5131776;27;20436;-72
2021/04/01 09:26:14;;;;;;;8.50;5.20;;;41.80;7.30;;;;;;5136115;27;20441;-72
2021/04/01 09:28:42;;;;;;;12.43;5.83;;;40.20;8.40;;;;;;5134024;27;20483;-71
2021/04/01 09:31:11;;;;;;;7.60;4.50;;;38.90;9.70;;;;;;5127290;27;20440;-71
2021/04/01 09:33:40;;;;;;;6.30;4.63;;;37.90;10.70;;;;;;5131615;27;20441;-71
2021/04/01 09:36:10;;;;;;;10.17;5.20;;;37.10;11.20;;;;;;5134726;27;20450;-71
2021/04/01 09:38:40;;;;;;;9.03;5.40;;;36.90;12.50;;;;;;5120659;27;20832;-71
2021/04/01 09:41:06;;;;;;;17.10;7.27;;;36.70;11.30;;;;;;5136484;27;20434;-71
2021/04/01 09:43:34;;;;;;;20.57;8.13;;;36.50;11.50;;;;;;5132596;27;20440;-71
2021/04/01 09:46:11;;;;;;;11.43;6.40;;;35.80;11.10;;;;;;5125960;27;20449;-71
2021/04/01 09:48:42;;;;;;;10.30;6.13;;;36.00;12.20;;;;;;5118938;27;20937;-72
2021/04/01 09:51:18;;;;;;;9.10;5.57;;;36.60;12.60;;;;;;5132848;27;20438;-71
2021/04/01 09:53:53;;;;;;;11.17;5.13;;;38.80;11.80;;;;;;5122321;27;20469;-71
2021/04/01 09:56:24;;;;;;;10.27;5.93;;;40.30;11.50;;;;;;5137995;27;20445;-72
2021/04/01 09:58:53;;;;;;;10.37;6.33;;;41.40;9.10;;;;;;5131910;27;20818;-71
2021/04/01 10:01:28;;;;;;;10.63;5.73;;;40.60;9.90;;;;;;5138096;27;20483;-72
2021/04/01 10:03:59;;;;;;;9.43;5.80;;;42.60;9.90;;;;;;5138217;27;20510;-73
2021/04/01 10:06:35;;;;;;;12.13;6.07;;;45.80;8.60;;;;;;5136484;27;20453;-72
2021/04/01 10:09:16;;;;;;;9.90;4.80;;;48.10;7.20;;;;;;5117148;27;20487;-72
2021/04/01 10:11:45;;;;;;;6.30;5.00;;;50.00;7.20;;;;;;5116420;27;20464;-72
2021/04/01 10:14:13;;;;;;;7.97;5.27;;;51.80;6.60;;;;;;5119411;27;20892;-73
2021/04/01 10:16:52;;;;;;;10.53;4.77;;;53.40;5.80;;;;;;5123175;27;20813;-73
2021/04/01 10:19:25;;;;;;;10.00;5.47;;;54.40;5.60;;;;;;5119856;27;20995;-73
2021/04/01 10:21:54;;;;;;;7.27;5.13;;;55.30;5.40;;;;;;5130695;27;20967;-72
2021/04/01 10:24:24;;;;;;;8.73;5.67;;;56.20;4.80;;;;;;5130499;27;20931;-72
2021/04/01 10:27:00;;;;;;;7.97;6.23;;;56.80;5.00;;;;;;5119563;27;20434;-73
2021/04/01 10:29:39;;;;;;;8.10;6.50;;;57.00;3.80;;;;;;5117053;27;20534;-72
2021/04/01 10:32:08;;;;;;;10.10;5.70;;;56.70;3.90;;;;;;5117049;27;20506;-72
2021/04/01 10:34:36;;;;;;;15.23;6.80;;;56.80;3.70;;;;;;5133185;27;20476;-74
2021/04/01 10:37:07;;;;;;;10.70;5.90;;;55.70;3.10;;;;;;5133809;27;20516;-72
2021/04/01 10:39:37;;;;;;;11.37;5.70;;;53.40;3.80;;;;;;5132864;27;20950;-74
2021/04/01 10:42:09;;;;;;;10.03;6.70;;;53.80;4.30;;;;;;5130668;27;20425;-72
2021/04/01 10:44:37;;;;;;;9.20;5.90;;;54.80;4.10;;;;;;5132779;27;20449;-73
2021/04/01 10:47:06;;;;;;;8.77;5.53;;;54.80;4.90;;;;;;5118475;27;20466;-73
2021/04/01 10:49:35;;;;;;;7.23;5.37;;;55.60;4.60;;;;;;5115146;27;20482;-73
2021/04/01 10:52:04;;;;;;;9.53;6.23;;;56.40;4.00;;;;;;5132058;27;20457;-73
2021/04/01 10:54:40;;;;;;;8.57;6.03;;;56.10;4.30;;;;;;5120456;27;20431;-73
2021/04/01 10:57:12;;;;;;;7.90;5.30;;;56.50;4.30;;;;;;5124602;27;20430;-73
2021/04/01 10:59:43;;;;;;;9.23;5.30;;;54.90;3.80;;;;;;5114999;27;20860;-73
2021/04/01 11:02:16;;;;;;;8.00;4.50;;;52.90;4.20;;;;;;5123471;27;20430;-72
2021/04/01 11:04:45;;;;;;;8.07;4.73;;;51.30;5.20;;;;;;5115089;27;20482;-72
2021/04/01 11:07:12;;;;;;;7.47;4.90;;;50.50;5.60;;;;;;5118606;27;20438;-73
2021/04/01 11:09:46;;;;;;;7.60;4.60;;;51.30;6.40;;;;;;5119260;27;20531;-73
2021/04/01 11:12:21;;;;;;;7.83;4.50;;;52.70;5.40;;;;;;5117974;27;20448;-72
2021/04/01 11:15:00;;;;;;;8.30;4.20;;;53.20;4.70;;;;;;5116783;27;20437;-72
2021/04/01 11:17:32;;;;;;;4.67;3.60;;;52.10;5.30;;;;;;5130599;27;20433;-73
2021/04/01 11:20:05;;;;;;;5.83;3.57;;;52.90;5.70;;;;;;5116365;27;20434;-73
2021/04/01 11:22:34;;;;;;;9.00;3.97;;;53.70;5.20;;;;;;5114436;27;22168;-72
2021/04/01 11:25:17;;;;;;;6.73;4.30;;;54.20;5.30;;;;;;5120805;27;20453;-72
2021/04/01 11:27:52;;;;;;;6.10;3.90;;;54.40;5.00;;;;;;5128033;27;20476;-73
2021/04/01 11:30:20;;;;;;;7.67;3.90;;;55.10;5.10;;;;;;5131987;27;20430;-73
2021/04/01 11:32:52;;;;;;;5.63;3.30;;;55.70;4.70;;;;;;5127935;27;20829;-73
2021/04/01 11:35:22;;;;;;;9.60;3.90;;;55.90;4.90;;;;;;5132376;27;20437;-73
2021/04/01 11:37:53;;;;;;;8.90;3.20;;;55.40;4.10;;;;;;5118673;27;20582;-73
2021/04/01 11:40:22;;;;;;;7.20;3.17;;;54.50;4.00;;;;;;5114268;27;20900;-72
2021/04/01 11:42:55;;;;;;;6.10;3.50;;;51.90;3.70;;;;;;5115804;27;20466;-73
2021/04/01 11:45:33;;;;;;;6.23;3.70;;;48.60;4.10;;;;;;5114183;27;20474;-72
2021/04/01 11:48:12;;;;;;;5.50;3.03;;;46.50;5.20;;;;;;5131755;27;20484;-71
2021/04/01 11:50:41;;;;;;;7.77;3.80;;;46.30;6.60;;;;;;5132105;27;20429;-73
2021/04/01 11:53:11;;;;;;;5.60;3.37;;;46.20;6.20;;;;;;5132689;27;20528;-72
2021/04/01 11:55:54;;;;;;;5.73;3.17;;;45.80;7.30;;;;;;5132041;27;21060;-73
2021/04/01 11:58:23;;;;;;;5.70;3.70;;;46.10;6.80;;;;;;5131044;27;20793;-72
2021/04/01 12:01:02;;;;;;;7.33;3.60;;;44.50;6.50;;;;;;5123596;27;20430;-72
2021/04/01 12:03:48;;;;;;;8.87;4.53;;;43.90;8.40;;;;;;5129039;27;20437;-72
2021/04/01 12:06:16;;;;;;;6.93;3.90;;;43.00;7.10;;;;;;5131928;27;20433;-71
2021/04/01 12:08:43;;;;;;;7.50;3.93;;;41.00;8.00;;;;;;5131571;27;20473;-72
2021/04/01 12:11:12;;;;;;;6.00;3.50;;;40.20;9.70;;;;;;5132149;27;20438;-72
2021/04/01 12:13:45;;;;;;;7.73;3.00;;;40.50;10.00;;;;;;5131162;27;20457;-72
2021/04/01 12:16:19;;;;;;;4.57;2.87;;;41.10;9.40;;;;;;5113583;27;20438;-72
2021/04/01 12:18:50;;;;;;;5.00;3.50;;;41.60;8.70;;;;;;5113862;27;20431;-72
2021/04/01 12:21:22;;;;;;;8.80;3.87;;;41.80;7.90;;;;;;5118058;27;20434;-72
2021/04/01 12:23:52;;;;;;;6.43;4.07;;;41.60;8.30;;;;;;5114668;27;20434;-72
2021/04/01 12:26:20;;;;;;;6.10;3.73;;;41.40;8.90;;;;;;5124911;27;20493;-72
2021/04/01 12:28:56;;;;;;;4.90;3.10;;;41.30;8.20;;;;;;5120287;27;20580;-72
2021/04/01 12:31:29;;;;;;;9.20;4.07;;;41.10;8.40;;;;;;5113242;27;20969;-72
2021/04/01 12:33:56;;;;;;;7.10;3.80;;;40.70;8.20;;;;;;5117028;27;20506;-73
2021/04/01 12:36:34;;;;;;;8.77;4.30;;;39.90;8.00;;;;;;5120652;27;20963;-71
2021/04/01 12:39:01;;;;;;;6.60;3.73;;;38.90;8.30;;;;;;5117555;27;20459;-71
2021/04/01 12:41:30;;;;;;;5.00;4.20;;;37.80;9.00;;;;;;5130407;27;20430;-72
2021/04/01 12:43:58;;;;;;;8.90;4.37;;;36.80;9.90;;;;;;5116571;27;20903;-71
2021/04/01 12:46:36;;;;;;;10.70;5.03;;;35.80;10.60;;;;;;5115709;27;20476;-71
2021/04/01 12:49:03;;;;;;;5.80;3.17;;;34.80;11.20;;;;;;5130931;27;20464;-72
2021/04/01 12:51:42;;;;;;;6.63;3.30;;;34.00;11.80;;;;;;5131218;27;20466;-71
2021/04/01 12:54:09;;;;;;;6.27;3.73;;;33.40;12.40;;;;;;5117303;27;20520;-71
2021/04/01 12:56:40;;;;;;;9.70;3.30;;;33.10;12.80;;;;;;5112699;28;20498;-72
2021/04/01 12:59:09;;;;;;;5.50;3.30;;;32.70;12.90;;;;;;5125503;27;20498;-71
2021/04/01 13:01:43;;;;;;;7.00;3.50;;;32.40;13.70;;;;;;5112845;27;20911;-71
2021/04/01 13:04:12;;;;;;;8.10;3.20;;;32.30;14.30;;;;;;5128402;27;21001;-71
2021/04/01 13:06:43;;;;;;;6.17;3.03;;;32.00;14.40;;;;;;5131155;27;20808;-73
2021/04/01 13:09:27;;;;;;;9.23;3.43;;;31.60;13.90;;;;;;5130699;27;20483;-73
2021/04/01 13:11:56;;;;;;;8.93;3.33;;;31.10;14.70;;;;;;5121440;27;20946;-72
2021/04/01 13:14:24;;;;;;;6.10;3.20;;;30.70;15.20;;;;;;5127009;27;20429;-73
2021/04/01 13:16:51;;;;;;;7.20;3.27;;;30.30;15.60;;;;;;5119321;27;20488;-72
2021/04/01 13:19:18;;;;;;;7.27;2.80;;;29.90;15.40;;;;;;5112774;28;20796;-72
2021/04/01 13:22:04;;;;;;;14.33;2.73;;;29.50;15.90;;;;;;5124328;27;20480;-72
2021/04/01 13:24:37;;;;;;;5.20;3.10;;;29.10;15.70;;;;;;5129409;27;20430;-72
2021/04/01 13:27:09;;;;;;;7.67;3.40;;;28.80;15.90;;;;;;5129099;27;20433;-72
2021/04/01 13:29:39;;;;;;;5.00;2.40;;;28.40;16.30;;;;;;5119166;27;20484;-72
2021/04/01 13:32:10;;;;;;;5.50;3.10;;;28.20;17.10;;;;;;5112572;28;20434;-72
2021/04/01 13:34:38;;;;;;;6.33;3.10;;;28.00;17.60;;;;;;5126741;27;20436;-72
2021/04/01 13:37:08;;;;;;;7.67;3.13;;;28.00;17.90;;;;;;5128539;27;20993;-72
2021/04/01 13:39:37;;;;;;;6.20;3.70;;;28.00;18.30;;;;;;5116854;27;20529;-73
2021/04/01 13:42:11;;;;;;;7.43;3.57;;;28.20;18.20;;;;;;5122558;27;20459;-72
2021/04/01 13:44:42;;;;;;;4.50;2.47;;;28.30;18.00;;;;;;5121959;27;20426;-72
2021/04/01 13:47:12;;;;;;;6.20;2.90;;;28.30;17.70;;;;;;5116230;27;20466;-73
2021/04/01 13:49:42;;;;;;;6.60;2.80;;;28.20;17.80;;;;;;5116284;27;20557;-72
2021/04/01 13:52:17;;;;;;;6.93;2.63;;;28.00;18.20;;;;;;5116729;27;20442;-72
2021/04/01 13:54:48;;;;;;;6.83;3.13;;;27.80;18.00;;;;;;5134270;27;20430;-72